sensor_id;sensor_type;location;lat;lon;timestamp;pressure;altitude;pressure_sealevel;temperature;humidity
56402;BME280;42299;35.160;26.100;2023-06-24T00:03:17;100835.72;;;21.95;100.00
56402;BME280;42299;35.160;26.100;2023-06-24T00:13:40;100826.22;;;21.83;100.00
56402;BME280;42299;35.160;26.100;2023-06-24T00:24:05;100829.94;;;21.48;100.00
56402;BME280;42299;35.160;26.100;2023-06-24T00:34:28;100823.66;;;21.48;100.00
56402;BME280;42299;35.160;26.100;2023-06-24T00:44:53;100824.56;;;21.48;100.00
56402;BME280;42299;35.160;26.100;2023-06-24T00:55:17;100828.25;;;21.44;100.00
56402;BME280;42299;35.160;26.100;2023-06-24T01:05:44;100829.72;;;21.24;100.00
56402;BME280;42299;35.160;26.100;2023-06-24T01:16:12;100830.78;;;21.18;100.00
56402;BME280;42299;35.160;26.100;2023-06-24T01:27:09;100831.72;;;21.14;100.00
56402;BME280;42299;35.160;26.100;2023-06-24T01:37:42;100833.84;;;21.01;100.00
56402;BME280;42299;35.160;26.100;2023-06-24T01:48:13;100842.91;;;20.99;100.00
56402;BME280;42299;35.160;26.100;2023-06-24T01:58:39;100846.13;;;20.78;100.00
56402;BME280;42299;35.160;26.100;2023-06-24T02:09:04;100856.16;;;20.69;100.00
56402;BME280;42299;35.160;26.100;2023-06-24T02:19:30;100866.09;;;20.66;100.00
56402;BME280;42299;35.160;26.100;2023-06-24T02:29:54;100855.50;;;20.60;100.00
56402;BME280;42299;35.160;26.100;2023-06-24T02:40:22;100863.88;;;20.46;100.00
56402;BME280;42299;35.160;26.100;2023-06-24T02:50:25;100861.25;;;20.43;100.00
56402;BME280;42299;35.160;26.100;2023-06-24T03:00:51;100870.13;;;20.05;100.00
56402;BME280;42299;35.160;26.100;2023-06-24T03:11:25;100866.66;;;20.00;100.00
56402;BME280;42299;35.160;26.100;2023-06-24T03:21:50;100875.06;;;20.25;100.00
56402;BME280;42299;35.160;26.100;2023-06-24T03:32:13;100874.03;;;20.69;100.00
56402;BME280;42299;35.160;26.100;2023-06-24T03:42:38;100876.78;;;21.03;100.00
56402;BME280;42299;35.160;26.100;2023-06-24T03:53:02;100882.53;;;21.57;100.00
56402;BME280;42299;35.160;26.100;2023-06-24T04:03:26;100871.16;;;22.11;100.00
56402;BME280;42299;35.160;26.100;2023-06-24T04:13:49;100882.63;;;22.75;100.00
56402;BME280;42299;35.160;26.100;2023-06-24T04:24:14;100882.66;;;23.26;100.00
56402;BME280;42299;35.160;26.100;2023-06-24T04:34:36;100890.13;;;23.94;100.00
56402;BME280;42299;35.160;26.100;2023-06-24T04:45:05;100894.38;;;24.69;100.00
56402;BME280;42299;35.160;26.100;2023-06-24T04:55:28;100902.78;;;25.47;100.00
56402;BME280;42299;35.160;26.100;2023-06-24T05:05:55;100905.38;;;26.11;100.00
56402;BME280;42299;35.160;26.100;2023-06-24T05:16:19;100915.25;;;26.87;100.00
56402;BME280;42299;35.160;26.100;2023-06-24T05:26:44;100904.94;;;27.48;100.00
56402;BME280;42299;35.160;26.100;2023-06-24T05:37:07;100907.25;;;28.23;96.84
56402;BME280;42299;35.160;26.100;2023-06-24T05:47:31;100908.97;;;29.04;86.97
56402;BME280;42299;35.160;26.100;2023-06-24T05:57:54;100908.66;;;29.70;77.82
56402;BME280;42299;35.160;26.100;2023-06-24T06:08:18;100910.38;;;30.58;68.03
56402;BME280;42299;35.160;26.100;2023-06-24T06:18:41;100907.56;;;31.40;57.64
56402;BME280;42299;35.160;26.100;2023-06-24T06:29:06;100913.81;;;32.32;50.72
56402;BME280;42299;35.160;26.100;2023-06-24T06:39:28;100923.63;;;32.96;46.41
56402;BME280;42299;35.160;26.100;2023-06-24T06:49:52;100917.59;;;33.51;43.45
56402;BME280;42299;35.160;26.100;2023-06-24T07:00:16;100915.56;;;33.77;41.77
56402;BME280;42299;35.160;26.100;2023-06-24T07:10:41;100909.38;;;33.97;39.72
56402;BME280;42299;35.160;26.100;2023-06-24T07:21:03;100910.91;;;34.13;40.51
56402;BME280;42299;35.160;26.100;2023-06-24T07:31:28;100894.34;;;34.36;38.54
56402;BME280;42299;35.160;26.100;2023-06-24T07:41:50;100903.59;;;34.24;38.06
56402;BME280;42299;35.160;26.100;2023-06-24T07:52:00;100906.91;;;34.06;37.13
56402;BME280;42299;35.160;26.100;2023-06-24T08:02:23;100904.69;;;34.22;37.59
56402;BME280;42299;35.160;26.100;2023-06-24T08:12:49;100892.22;;;34.40;36.74
56402;BME280;42299;35.160;26.100;2023-06-24T08:23:12;100910.56;;;34.51;36.98
56402;BME280;42299;35.160;26.100;2023-06-24T08:33:36;100907.78;;;34.73;36.21
56402;BME280;42299;35.160;26.100;2023-06-24T08:43:58;100915.13;;;34.95;35.58
56402;BME280;42299;35.160;26.100;2023-06-24T08:54:24;100920.19;;;35.22;35.53
56402;BME280;42299;35.160;26.100;2023-06-24T09:04:47;100915.94;;;35.49;34.33
56402;BME280;42299;35.160;26.100;2023-06-24T09:15:14;100916.72;;;35.72;33.38
56402;BME280;42299;35.160;26.100;2023-06-24T09:25:37;100925.44;;;35.77;32.45
56402;BME280;42299;35.160;26.100;2023-06-24T09:36:04;100924.38;;;35.89;31.92
56402;BME280;42299;35.160;26.100;2023-06-24T09:46:27;100936.75;;;36.05;31.66
56402;BME280;42299;35.160;26.100;2023-06-24T09:56:54;100935.47;;;36.09;31.84
56402;BME280;42299;35.160;26.100;2023-06-24T10:07:18;100927.50;;;35.85;31.57
56402;BME280;42299;35.160;26.100;2023-06-24T10:17:44;100922.41;;;36.01;31.21
56402;BME280;42299;35.160;26.100;2023-06-24T10:28:07;100918.97;;;35.67;31.34
56402;BME280;42299;35.160;26.100;2023-06-24T10:38:32;100914.81;;;36.14;30.33
56402;BME280;42299;35.160;26.100;2023-06-24T10:48:55;100917.97;;;36.10;29.99
56402;BME280;42299;35.160;26.100;2023-06-24T10:59:19;100909.06;;;36.17;29.88
56402;BME280;42299;35.160;26.100;2023-06-24T11:09:42;100892.69;;;36.46;30.75
56402;BME280;42299;35.160;26.100;2023-06-24T11:20:08;100879.97;;;36.55;30.76
56402;BME280;42299;35.160;26.100;2023-06-24T11:30:35;100891.25;;;36.52;30.52
56402;BME280;42299;35.160;26.100;2023-06-24T11:40:39;100872.81;;;36.12;30.06
56402;BME280;42299;35.160;26.100;2023-06-24T11:51:02;100868.97;;;35.52;31.77
56402;BME280;42299;35.160;26.100;2023-06-24T12:01:31;100864.94;;;34.93;33.45
56402;BME280;42299;35.160;26.100;2023-06-24T12:11:54;100864.16;;;34.48;33.88
56402;BME280;42299;35.160;26.100;2023-06-24T12:22:18;100853.41;;;34.67;34.08
56402;BME280;42299;35.160;26.100;2023-06-24T12:32:43;100850.94;;;35.07;32.67
56402;BME280;42299;35.160;26.100;2023-06-24T12:43:07;100833.13;;;35.54;31.74
56402;BME280;42299;35.160;26.100;2023-06-24T12:53:30;100823.59;;;35.58;31.82
56402;BME280;42299;35.160;26.100;2023-06-24T13:03:56;100828.88;;;35.91;30.42
56402;BME280;42299;35.160;26.100;2023-06-24T13:14:18;100808.91;;;36.20;29.35
56402;BME280;42299;35.160;26.100;2023-06-24T13:24:42;100809.19;;;35.86;30.26
56402;BME280;42299;35.160;26.100;2023-06-24T13:35:05;100811.34;;;35.62;30.52
56402;BME280;42299;35.160;26.100;2023-06-24T13:45:30;100801.38;;;35.40;30.71
56402;BME280;42299;35.160;26.100;2023-06-24T13:55:52;100805.09;;;35.60;31.08
56402;BME280;42299;35.160;26.100;2023-06-24T14:06:18;100797.19;;;35.46;31.70
56402;BME280;42299;35.160;26.100;2023-06-24T14:16:41;100805.84;;;34.89;34.60
56402;BME280;42299;35.160;26.100;2023-06-24T14:27:06;100800.13;;;34.92;36.01
56402;BME280;42299;35.160;26.100;2023-06-24T14:37:29;100816.47;;;34.39;36.93
56402;BME280;42299;35.160;26.100;2023-06-24T14:47:53;100804.59;;;34.27;37.97
56402;BME280;42299;35.160;26.100;2023-06-24T14:58:17;100806.97;;;34.10;38.13
56402;BME280;42299;35.160;26.100;2023-06-24T15:08:42;100806.16;;;33.17;50.76
56402;BME280;42299;35.160;26.100;2023-06-24T15:19:05;100810.88;;;32.43;54.97
56402;BME280;42299;35.160;26.100;2023-06-24T15:29:29;100806.63;;;32.03;54.57
56402;BME280;42299;35.160;26.100;2023-06-24T15:39:52;100798.41;;;31.40;57.30
56402;BME280;42299;35.160;26.100;2023-06-24T15:50:17;100799.31;;;30.74;61.84
56402;BME280;42299;35.160;26.100;2023-06-24T16:00:39;100809.25;;;30.34;65.09
56402;BME280;42299;35.160;26.100;2023-06-24T16:11:05;100807.34;;;30.07;59.84
56402;BME280;42299;35.160;26.100;2023-06-24T16:21:28;100807.06;;;29.84;57.55
56402;BME280;42299;35.160;26.100;2023-06-24T16:31:52;100798.09;;;29.67;55.79
56402;BME280;42299;35.160;26.100;2023-06-24T16:42:14;100792.19;;;29.47;55.29
56402;BME280;42299;35.160;26.100;2023-06-24T16:52:38;100788.41;;;29.19;56.11
56402;BME280;42299;35.160;26.100;2023-06-24T17:03:01;100800.06;;;28.91;60.07
56402;BME280;42299;35.160;26.100;2023-06-24T17:13:25;100804.66;;;28.60;64.05
56402;BME280;42299;35.160;26.100;2023-06-24T17:23:48;100810.66;;;28.35;66.23
56402;BME280;42299;35.160;26.100;2023-06-24T17:34:12;100803.25;;;28.05;69.38
56402;BME280;42299;35.160;26.100;2023-06-24T17:44:35;100789.34;;;27.79;72.76
56402;BME280;42299;35.160;26.100;2023-06-24T17:54:59;100785.09;;;27.57;75.94
56402;BME280;42299;35.160;26.100;2023-06-24T18:05:02;100792.44;;;27.38;76.81
56402;BME280;42299;35.160;26.100;2023-06-24T18:15:27;100810.03;;;26.96;82.24
56402;BME280;42299;35.160;26.100;2023-06-24T18:25:49;100816.66;;;26.91;82.58
56402;BME280;42299;35.160;26.100;2023-06-24T18:36:14;100832.25;;;26.31;90.81
56402;BME280;42299;35.160;26.100;2023-06-24T18:46:37;100836.22;;;26.24;89.78
56402;BME280;42299;35.160;26.100;2023-06-24T18:57:01;100848.59;;;26.09;91.25
56402;BME280;42299;35.160;26.100;2023-06-24T19:07:24;100867.81;;;25.85;93.54
56402;BME280;42299;35.160;26.100;2023-06-24T19:17:49;100869.03;;;25.77;92.81
56402;BME280;42299;35.160;26.100;2023-06-24T19:28:12;100879.34;;;25.48;98.44
56402;BME280;42299;35.160;26.100;2023-06-24T19:38:37;100898.09;;;25.32;97.90
56402;BME280;42299;35.160;26.100;2023-06-24T19:49:00;100897.47;;;25.04;100.00
56402;BME280;42299;35.160;26.100;2023-06-24T19:59:15;100906.31;;;24.63;100.00
56402;BME280;42299;35.160;26.100;2023-06-24T20:09:38;100913.41;;;24.66;100.00
56402;BME280;42299;35.160;26.100;2023-06-24T20:20:02;100920.25;;;24.53;100.00
56402;BME280;42299;35.160;26.100;2023-06-24T20:30:25;100917.19;;;24.15;100.00
56402;BME280;42299;35.160;26.100;2023-06-24T20:40:50;100908.66;;;24.03;100.00
56402;BME280;42299;35.160;26.100;2023-06-24T20:51:12;100918.50;;;24.04;100.00
56402;BME280;42299;35.160;26.100;2023-06-24T21:01:37;100910.91;;;23.90;100.00
56402;BME280;42299;35.160;26.100;2023-06-24T21:12:00;100917.13;;;23.69;100.00
56402;BME280;42299;35.160;26.100;2023-06-24T21:22:24;100907.50;;;23.62;100.00
56402;BME280;42299;35.160;26.100;2023-06-24T21:32:47;100912.47;;;23.48;100.00
56402;BME280;42299;35.160;26.100;2023-06-24T21:43:12;100904.59;;;23.41;100.00
56402;BME280;42299;35.160;26.100;2023-06-24T21:53:35;100894.28;;;23.28;100.00
56402;BME280;42299;35.160;26.100;2023-06-24T22:04:01;100887.66;;;23.12;100.00
56402;BME280;42299;35.160;26.100;2023-06-24T22:14:23;100889.53;;;23.10;100.00
56402;BME280;42299;35.160;26.100;2023-06-24T22:24:47;100862.97;;;22.97;100.00
56402;BME280;42299;35.160;26.100;2023-06-24T22:35:10;100868.72;;;22.59;100.00
56402;BME280;42299;35.160;26.100;2023-06-24T22:45:35;100851.22;;;22.74;100.00
56402;BME280;42299;35.160;26.100;2023-06-24T22:55:58;100847.00;;;22.65;100.00
56402;BME280;42299;35.160;26.100;2023-06-24T23:06:23;100825.19;;;22.46;100.00
56402;BME280;42299;35.160;26.100;2023-06-24T23:16:46;100816.53;;;22.37;100.00
56402;BME280;42299;35.160;26.100;2023-06-24T23:27:11;100796.88;;;22.35;100.00
56402;BME280;42299;35.160;26.100;2023-06-24T23:37:34;100792.38;;;22.35;100.00
56402;BME280;42299;35.160;26.100;2023-06-24T23:48:00;100785.44;;;22.28;100.00
56402;BME280;42299;35.160;26.100;2023-06-24T23:58:23;100770.38;;;22.22;100.00
